Oneida, Kansas
Current Conditions -  °F | °C
As of 11:53 AM on Friday 24 Oct 2014 (Local Time) from KFNB Reporting Station
Clear Clear  
Wind Chill: 68°   Ceiling: Unl
Heat Index: 68°   Visibility: 10mi
Dew Point: 62°   Wind: 13mph
Humidity: 81%   Direction: 210°SSW
Pressure: 29.97"   Gusts: NA
Location:  39.86°N, 95.94°W
Report Text: KFNB 241653Z AUTO 21011KT 10SM CLR 20/17 A2997 RMK AO2 SLP145 T02000167
Loading
Personal Weather Stations






























Interactive Weather Map
Tropical Storm Tracking
New forecast layout! Learn more

10-Day Weather Forecast

Advertisements
Track Severe Weather on mobile